Time;durP1;ratioP1;P1;durP2;ratioP2;P2;SDS_P1;SDS_P2;PMS_P1;PMS_P2;Temp;Humidity;BMP_temperature;BMP_pressure;BME280_temperature;BME280_humidity;BME280_pressure;Samples;Min_cycle;Max_cycle;Signal;HPM_P1;HPM_P2
2023/07/08 00:01:11;;;;;;;;;15.00;15.00;;;;;19.74;100.00;99366.09;6285721;27;96762;-63
2023/07/08 00:04:14;;;;;;;;;13.20;13.00;;;;;19.36;100.00;99306.31;6278440;27;96374;-63
2023/07/08 00:07:21;;;;;;;;;14.00;13.25;;;;;19.67;100.00;99362.81;6245876;27;97142;-62
2023/07/08 00:10:28;;;;;;;;;15.40;14.40;;;;;19.69;100.00;99371.56;6264131;27;96547;-63
2023/07/08 00:13:31;;;;;;;;;14.80;14.00;;;;;19.65;100.00;99370.44;6272310;27;96933;-63
2023/07/08 00:16:36;;;;;;;;;13.00;13.00;;;;;19.65;100.00;99377.81;6253275;27;96827;-62
2023/07/08 00:19:39;;;;;;;;;14.60;13.60;;;;;19.62;100.00;99378.38;6252439;27;96657;-63
2023/07/08 00:22:42;;;;;;;;;16.50;15.50;;;;;19.60;100.00;99373.16;6288067;27;96768;-63
2023/07/08 00:25:49;;;;;;;;;18.00;15.00;;;;;19.62;100.00;99378.38;6265712;27;96439;-63
2023/07/08 00:28:52;;;;;;;;;16.00;15.00;;;;;19.65;100.00;99375.09;6247304;27;98947;-63
2023/07/08 00:31:56;;;;;;;;;15.60;14.60;;;;;19.68;100.00;99374.56;6285746;27;96468;-63
2023/07/08 00:34:59;;;;;;;;;16.00;15.00;;;;;19.72;100.00;99371.03;6270366;27;98944;-63
2023/07/08 00:38:12;;;;;;;;;18.60;16.60;;;;;19.73;100.00;99369.13;6287370;27;96369;-62
2023/07/08 00:41:24;;;;;;;;;17.00;16.25;;;;;19.75;100.00;99369.66;6244955;27;96349;-63
2023/07/08 00:44:28;;;;;;;;;16.00;16.00;;;;;19.75;100.00;99364.19;6263737;27;96261;-63
2023/07/08 00:47:31;;;;;;;;;17.00;15.60;;;;;19.63;100.00;99352.66;6273544;27;96378;-63
2023/07/08 00:50:34;;;;;;;;;16.60;16.60;;;;;19.77;100.00;99365.56;6273030;27;96526;-61
2023/07/08 00:53:38;;;;;;;;;14.40;14.00;;;;;19.77;100.00;99360.09;6259488;27;96918;-63
2023/07/08 00:56:47;;;;;;;;;16.20;15.80;;;;;19.74;100.00;99360.63;6261426;27;96290;-63
2023/07/08 00:59:57;;;;;;;;;15.60;14.40;;;;;19.74;100.00;99365.28;6242896;27;96883;-63
2023/07/08 01:03:00;;;;;;;;;15.80;15.80;;;;;19.75;100.00;99359.53;6253654;27;98450;-63
2023/07/08 01:06:06;;;;;;;;;14.20;14.00;;;;;19.75;100.00;99358.69;6263420;27;96573;-63
2023/07/08 01:09:12;;;;;;;;;15.60;15.00;;;;;19.72;100.00;99356.53;6261772;27;96867;-63
2023/07/08 01:12:21;;;;;;;;;15.25;14.25;;;;;19.69;100.00;99355.16;6244741;27;96605;-63
2023/07/08 01:15:30;;;;;;;;;14.00;13.00;;;;;19.48;100.00;99325.28;6259500;27;96937;-62
2023/07/08 01:18:35;;;;;;;;;18.60;15.00;;;;;19.53;100.00;99356.19;6241257;27;98689;-63
2023/07/08 01:21:43;;;;;;;;;14.80;14.80;;;;;19.47;100.00;99340.84;6276743;27;96815;-62
2023/07/08 01:24:48;;;;;;;;;15.20;15.00;;;;;19.43;100.00;99342.47;6255847;27;96913;-62
2023/07/08 01:27:56;;;;;;;;;16.00;15.00;;;;;19.39;100.00;99344.91;6285118;27;97133;-63
2023/07/08 01:31:01;;;;;;;;;15.60;14.00;;;;;19.40;100.00;99343.00;6260072;27;96612;-63
2023/07/08 01:34:11;;;;;;;;;15.00;14.00;;;;;19.40;100.00;99341.06;6269466;27;96509;-63
2023/07/08 01:37:14;;;;;;;;;16.40;15.40;;;;;19.42;100.00;99344.38;6285191;27;96458;-63
2023/07/08 01:40:26;;;;;;;;;15.00;14.00;;;;;19.46;100.00;99348.22;6244490;27;96872;-63
2023/07/08 01:43:30;;;;;;;;;16.80;16.80;;;;;19.46;100.00;99350.97;6266429;27;96223;-63
2023/07/08 01:46:33;;;;;;;;;19.60;18.00;;;;;19.48;100.00;99355.34;6268507;27;99162;-62
2023/07/08 01:49:40;;;;;;;;;16.00;15.00;;;;;19.44;100.00;99344.97;6287488;27;96572;-62
2023/07/08 01:52:44;;;;;;;;;18.00;17.00;;;;;19.39;100.00;99347.66;6260788;27;97695;-62
2023/07/08 01:55:48;;;;;;;;;15.80;15.80;;;;;19.37;100.00;99343.53;6261728;27;96549;-62
2023/07/08 01:58:51;;;;;;;;;15.00;15.00;;;;;19.25;100.00;99357.44;6260860;27;96323;-63
2023/07/08 02:01:55;;;;;;;;;16.20;15.60;;;;;19.07;100.00;99349.69;6260492;27;96526;-63
2023/07/08 02:04:58;;;;;;;;;17.00;15.00;;;;;18.99;100.00;99363.84;6226711;27;97658;-63
2023/07/08 02:08:01;;;;;;;;;16.20;16.20;;;;;18.86;100.00;99362.38;6261701;27;97100;-63
2023/07/08 02:11:06;;;;;;;;;18.20;17.20;;;;;18.75;100.00;99352.50;6275627;27;96601;-63
2023/07/08 02:14:10;;;;;;;;;17.20;16.00;;;;;18.68;100.00;99356.53;6268846;27;96383;-62
2023/07/08 02:17:16;;;;;;;;;15.40;15.00;;;;;18.61;100.00;99348.59;6266814;27;96374;-63
2023/07/08 02:20:20;;;;;;;;;16.00;15.33;;;;;18.55;100.00;99353.19;6260573;27;96439;-62
2023/07/08 02:23:24;;;;;;;;;17.00;17.00;;;;;18.52;100.00;99350.94;6243188;27;96819;-63
2023/07/08 02:26:28;;;;;;;;;16.00;14.00;;;;;18.51;100.00;99349.31;6236303;27;97338;-62
2023/07/08 02:29:32;;;;;;;;;16.60;16.40;;;;;18.53;100.00;99347.16;6243212;27;98544;-62
2023/07/08 02:32:38;;;;;;;;;15.00;15.00;;;;;18.57;100.00;99348.28;6255952;27;96960;-62
2023/07/08 02:35:42;;;;;;;;;14.40;14.40;;;;;18.62;100.00;99346.69;6247572;27;96720;-62
2023/07/08 02:38:47;;;;;;;;;16.60;15.00;;;;;18.67;100.00;99352.19;6242166;27;98526;-62
2023/07/08 02:41:52;;;;;;;;;58.60;48.00;;;;;18.72;100.00;99352.19;6244419;27;98828;-62
2023/07/08 02:44:55;;;;;;;;;58.00;47.00;;;;;18.78;100.00;99360.16;6246420;27;98789;-62
2023/07/08 02:47:58;;;;;;;;;50.60;42.00;;;;;18.82;100.00;99357.72;6265069;27;98425;-63
2023/07/08 02:51:01;;;;;;;;;43.40;37.80;;;;;18.84;100.00;99367.31;6272333;27;96409;-62
2023/07/08 02:54:05;;;;;;;;;32.40;30.00;;;;;18.85;100.00;99374.44;6261483;27;96862;-62
2023/07/08 02:57:09;;;;;;;;;37.60;33.00;;;;;18.85;100.00;99373.59;6282702;27;96434;-63
2023/07/08 03:00:14;;;;;;;;;59.25;48.00;;;;;18.86;100.00;99376.06;6288499;27;96267;-63
2023/07/08 03:03:18;;;;;;;;;53.00;43.00;;;;;18.90;100.00;99381.84;6282499;27;97336;-63
2023/07/08 03:06:22;;;;;;;;;20.80;18.80;;;;;18.84;100.00;99374.69;6275536;27;96354;-63
2023/07/08 03:09:26;;;;;;;;;14.80;13.20;;;;;18.86;100.00;99378.78;6281177;27;96888;-62
2023/07/08 03:12:30;;;;;;;;;13.00;12.00;;;;;18.70;100.00;99379.78;6248294;27;96778;-63
2023/07/08 03:15:34;;;;;;;;;16.00;15.00;;;;;18.76;100.00;99370.56;6263696;27;96473;-62
2023/07/08 03:18:38;;;;;;;;;26.00;24.00;;;;;18.71;100.00;99359.59;6261877;27;96542;-62
2023/07/08 03:21:42;;;;;;;;;26.80;23.80;;;;;18.87;100.00;99371.41;6240228;27;96662;-62
2023/07/08 03:24:46;;;;;;;;;20.00;18.60;;;;;18.94;100.00;99380.22;6266227;27;96943;-62
2023/07/08 03:27:55;;;;;;;;;15.00;15.00;;;;;18.95;100.00;99362.75;6261518;27;96734;-62
2023/07/08 03:30:59;;;;;;;;;17.00;16.00;;;;;19.11;100.00;99388.25;6231786;27;96715;-62
2023/07/08 03:34:02;;;;;;;;;16.40;16.40;;;;;19.22;100.00;99390.75;6269870;27;96629;-62
2023/07/08 03:37:07;;;;;;;;;18.00;16.50;;;;;19.30;100.00;99387.50;6251282;27;96697;-63
2023/07/08 03:40:11;;;;;;;;;21.00;18.20;;;;;19.38;100.00;99387.00;6243349;27;97062;-62
2023/07/08 03:43:15;;;;;;;;;19.00;17.60;;;;;19.41;100.00;99380.16;6244205;27;96678;-62
2023/07/08 03:46:20;;;;;;;;;24.00;22.60;;;;;19.56;100.00;99388.47;6244168;27;96443;-62
2023/07/08 03:49:25;;;;;;;;;26.00;24.00;;;;;19.59;100.00;99382.47;6265135;27;96381;-62
2023/07/08 03:52:30;;;;;;;;;26.25;25.25;;;;;19.75;100.00;99392.34;6269932;27;96513;-62
2023/07/08 03:55:33;;;;;;;;;32.25;27.25;;;;;19.81;100.00;99399.50;6261613;27;96679;-62
2023/07/08 03:58:40;;;;;;;;;21.00;18.67;;;;;19.84;100.00;99393.47;6262433;27;97041;-62
2023/07/08 04:01:45;;;;;;;;;17.00;16.00;;;;;19.92;100.00;99386.66;6250471;27;96447;-63
2023/07/08 04:04:50;;;;;;;;;18.00;17.00;;;;;20.03;100.00;99384.78;6241706;27;99099;-63
2023/07/08 04:07:54;;;;;;;;;17.40;15.40;;;;;20.07;100.00;99378.50;6256822;27;96331;-62
2023/07/08 04:10:57;;;;;;;;;17.40;16.40;;;;;20.19;100.00;99387.25;6276135;27;96538;-62
2023/07/08 04:14:02;;;;;;;;;14.40;13.80;;;;;20.25;100.00;99388.09;6265458;27;96725;-62
2023/07/08 04:17:06;;;;;;;;;14.00;13.00;;;;;20.26;100.00;99378.78;6263016;27;97386;-63
2023/07/08 04:20:10;;;;;;;;;12.40;10.60;;;;;20.33;100.00;99379.34;6257463;27;98489;-63
2023/07/08 04:23:14;;;;;;;;;14.00;13.50;;;;;20.39;100.00;99367.31;6261183;27;96693;-63
2023/07/08 04:26:18;;;;;;;;;20.50;18.00;;;;;20.66;100.00;99376.06;6275064;27;96391;-63
2023/07/08 04:29:23;;;;;;;;;16.00;15.00;;;;;20.85;100.00;99373.56;6275489;27;97714;-62
2023/07/08 04:32:26;;;;;;;;;12.20;12.20;;;;;21.02;100.00;99371.34;6256312;27;96830;-63
2023/07/08 04:35:30;;;;;;;;;12.00;11.40;;;;;21.12;100.00;99365.00;6273869;27;96685;-63
2023/07/08 04:38:36;;;;;;;;;12.00;11.00;;;;;21.21;100.00;99374.31;6273337;27;97446;-63
2023/07/08 04:41:43;;;;;;;;;12.00;12.00;;;;;21.32;100.00;99375.94;6256240;27;98410;-62
2023/07/08 04:44:49;;;;;;;;;15.00;14.33;;;;;21.43;100.00;99377.53;6274462;27;96439;-63
2023/07/08 04:47:52;;;;;;;;;10.00;10.00;;;;;21.44;100.00;99372.88;6273579;27;96996;-63
2023/07/08 04:50:57;;;;;;;;;12.40;10.40;;;;;21.33;100.00;99347.41;6274421;27;96480;-62
2023/07/08 04:54:01;;;;;;;;;10.00;10.00;;;;;21.56;100.00;99376.94;6256211;27;96525;-63
2023/07/08 04:57:05;;;;;;;;;13.40;12.00;;;;;21.73;100.00;99384.81;6238121;27;98571;-63
2023/07/08 05:00:16;;;;;;;;;8.75;8.75;;;;;21.85;100.00;99381.72;6271054;27;96271;-62
2023/07/08 05:03:20;;;;;;;;;10.40;10.40;;;;;21.98;100.00;99381.13;6265703;27;96676;-63
2023/07/08 05:06:23;;;;;;;;;13.60;12.00;;;;;22.07;100.00;99384.91;6275496;27;96933;-63
2023/07/08 05:09:26;;;;;;;;;12.00;12.00;;;;;22.17;100.00;99384.84;6247746;27;96456;-63
2023/07/08 05:12:30;;;;;;;;;10.40;9.00;;;;;22.28;100.00;99380.94;6262098;27;96458;-63
2023/07/08 05:15:35;;;;;;;;;13.00;12.00;;;;;22.38;100.00;99378.09;6264348;27;98446;-63
2023/07/08 05:18:38;;;;;;;;;13.00;13.00;;;;;22.50;100.00;99376.91;6277644;27;97666;-63
2023/07/08 05:21:45;;;;;;;;;14.00;11.00;;;;;22.57;100.00;99367.22;6255240;27;96782;-63
2023/07/08 05:24:48;;;;;;;;;9.20;9.20;;;;;22.68;100.00;99381.69;6256147;27;96859;-63
2023/07/08 05:27:51;;;;;;;;;9.00;8.00;;;;;22.74;100.00;99381.38;6270916;27;96678;-63
2023/07/08 05:30:57;;;;;;;;;9.00;8.00;;;;;22.76;100.00;99367.34;6260709;27;96841;-63
2023/07/08 05:34:01;;;;;;;;;12.00;12.00;;;;;23.00;100.00;99384.72;6255110;27;99678;-64
2023/07/08 05:37:04;;;;;;;;;13.00;12.00;;;;;23.14;100.00;99382.09;6273696;27;97240;-64
2023/07/08 05:40:11;;;;;;;;;9.00;9.00;;;;;23.18;100.00;99380.38;6262835;27;98356;-63
2023/07/08 05:43:15;;;;;;;;;11.00;10.00;;;;;23.11;100.00;99383.50;6260246;27;96588;-64
2023/07/08 05:46:19;;;;;;;;;10.00;9.00;;;;;23.17;100.00;99367.72;6261160;27;96344;-64
2023/07/08 05:49:22;;;;;;;;;10.60;10.00;;;;;23.30;100.00;99378.06;6245464;27;96529;-63
2023/07/08 05:52:26;;;;;;;;;13.40;12.40;;;;;23.37;100.00;99374.94;6271883;27;96856;-63
2023/07/08 05:55:29;;;;;;;;;13.00;12.00;;;;;23.50;100.00;99377.84;6246503;27;96509;-63
2023/07/08 05:58:32;;;;;;;;;11.00;10.25;;;;;23.49;100.00;99378.13;6284784;27;96447;-64
2023/07/08 06:01:37;;;;;;;;;11.40;11.40;;;;;23.41;100.00;99365.78;6253241;27;98424;-63
2023/07/08 06:04:40;;;;;;;;;13.00;13.00;;;;;23.52;100.00;99386.59;6253279;27;97428;-63
2023/07/08 06:07:44;;;;;;;;;12.00;11.00;;;;;23.63;100.00;99371.59;6270509;27;97094;-63
2023/07/08 06:10:47;;;;;;;;;11.60;11.40;;;;;23.77;100.00;99388.22;6274525;27;96898;-63
2023/07/08 06:13:50;;;;;;;;;11.00;11.00;;;;;23.93;100.00;99389.66;6246972;27;97644;-64
2023/07/08 06:16:55;;;;;;;;;13.40;12.40;;;;;23.99;100.00;99382.97;6256661;27;97126;-63
2023/07/08 06:19:59;;;;;;;;;12.00;10.00;;;;;24.09;100.00;99379.25;6274841;27;97020;-64
2023/07/08 06:23:02;;;;;;;;;14.00;13.00;;;;;24.10;100.00;99367.91;6265423;27;96601;-64
2023/07/08 06:26:05;;;;;;;;;14.00;13.20;;;;;24.41;100.00;99373.78;6246768;27;96716;-64
2023/07/08 06:29:09;;;;;;;;;10.60;10.20;;;;;24.57;100.00;99385.38;6230796;27;96473;-63
2023/07/08 06:32:13;;;;;;;;;10.00;9.25;;;;;24.70;100.00;99384.59;6265720;27;96376;-64
2023/07/08 06:35:16;;;;;;;;;13.00;13.00;;;;;24.74;100.00;99368.25;6265741;27;98428;-64
2023/07/08 06:38:19;;;;;;;;;9.00;8.20;;;;;24.97;99.70;99389.41;6263469;27;98456;-64
2023/07/08 06:41:23;;;;;;;;;10.75;9.75;;;;;25.19;97.29;99384.00;6260971;27;96353;-64
2023/07/08 06:44:26;;;;;;;;;10.80;10.00;;;;;25.25;98.20;99380.03;6264989;27;97533;-64
2023/07/08 06:47:31;;;;;;;;;10.00;10.00;;;;;25.40;95.22;99382.47;6248212;27;96108;-63
2023/07/08 06:50:34;;;;;;;;;10.20;10.00;;;;;25.65;98.46;99388.63;6280387;27;96293;-63
2023/07/08 06:53:37;;;;;;;;;9.00;9.00;;;;;25.76;91.45;99387.28;6264415;27;97099;-63
2023/07/08 06:56:41;;;;;;;;;10.00;10.00;;;;;25.92;95.52;99390.53;6267717;27;98750;-64
2023/07/08 06:59:44;;;;;;;;;12.00;12.00;;;;;26.21;93.93;99386.28;6288849;27;96401;-63
2023/07/08 07:02:49;;;;;;;;;9.60;9.00;;;;;26.46;91.57;99389.56;6271547;27;96628;-64
2023/07/08 07:05:52;;;;;;;;;10.00;9.40;;;;;26.59;79.43;99391.44;6288461;27;96345;-64
2023/07/08 07:08:55;;;;;;;;;7.00;7.00;;;;;26.67;85.26;99382.41;6272252;27;96088;-64
2023/07/08 07:11:59;;;;;;;;;9.40;9.00;;;;;26.80;82.50;99378.72;6253467;27;98464;-64
2023/07/08 07:15:02;;;;;;;;;6.60;6.60;;;;;26.82;75.98;99381.19;6289567;27;96347;-64
2023/07/08 07:18:06;;;;;;;;;11.00;10.20;;;;;27.01;77.09;99385.41;6289710;27;96389;-64
2023/07/08 07:21:09;;;;;;;;;8.25;7.50;;;;;27.23;74.53;99387.28;6290117;27;96758;-64
2023/07/08 07:24:14;;;;;;;;;9.60;9.60;;;;;27.45;77.64;99384.44;6268801;27;96323;-64
2023/07/08 07:27:18;;;;;;;;;7.00;6.00;;;;;27.57;76.74;99379.13;6264905;27;96361;-64
2023/07/08 07:30:21;;;;;;;;;6.00;6.00;;;;;27.71;73.36;99379.00;6252379;27;97593;-64
2023/07/08 07:33:26;;;;;;;;;9.00;8.00;;;;;27.80;75.02;99379.03;6259388;27;96262;-64
2023/07/08 07:36:30;;;;;;;;;8.00;8.00;;;;;27.87;66.66;99373.81;6270193;27;96342;-64
2023/07/08 07:39:33;;;;;;;;;8.00;7.20;;;;;27.98;71.14;99356.53;6268122;27;97260;-64
2023/07/08 07:42:36;;;;;;;;;7.00;7.00;;;;;28.31;63.70;99375.50;6282534;27;97758;-64
2023/07/08 07:45:39;;;;;;;;;8.00;8.00;;;;;28.42;64.33;99379.56;6269818;27;96604;-64
2023/07/08 07:48:44;;;;;;;;;6.00;6.00;;;;;28.69;68.85;99372.84;6253702;27;99098;-64
2023/07/08 07:51:48;;;;;;;;;6.60;6.20;;;;;29.07;66.85;99375.72;6271674;27;96249;-64
2023/07/08 07:54:53;;;;;;;;;8.60;8.00;;;;;29.29;63.67;99372.69;6289993;27;96641;-64
2023/07/08 07:57:56;;;;;;;;;6.00;5.40;;;;;29.42;54.43;99366.09;6244540;27;96975;-64
2023/07/08 08:01:01;;;;;;;;;4.00;4.00;;;;;29.56;60.85;99365.88;6272082;27;97512;-64
2023/07/08 08:04:06;;;;;;;;;5.00;5.00;;;;;29.79;51.80;99370.00;6274269;27;98385;-64
2023/07/08 08:07:09;;;;;;;;;7.00;6.00;;;;;29.69;50.87;99364.81;6257157;27;98905;-64
2023/07/08 08:10:12;;;;;;;;;5.40;5.00;;;;;29.73;49.25;99362.19;6239860;27;98438;-64
2023/07/08 08:13:16;;;;;;;;;6.00;5.00;;;;;29.87;46.43;99365.50;6266483;27;96982;-64
2023/07/08 08:16:19;;;;;;;;;6.25;6.00;;;;;30.00;45.16;99368.09;6264433;27;96773;-64
2023/07/08 08:19:23;;;;;;;;;7.00;7.00;;;;;30.11;43.02;99376.81;6266397;27;96789;-64
2023/07/08 08:22:27;;;;;;;;;7.00;7.00;;;;;30.18;41.55;99371.53;6287808;27;96534;-63
2023/07/08 08:25:30;;;;;;;;;6.00;6.00;;;;;30.42;43.67;99368.88;6269491;27;96519;-63
2023/07/08 08:28:34;;;;;;;;;6.40;6.00;;;;;30.60;44.91;99369.53;6253686;27;97195;-63
2023/07/08 08:31:37;;;;;;;;;6.75;6.00;;;;;30.78;38.46;99376.56;6253625;27;98432;-63
2023/07/08 08:34:44;;;;;;;;;6.00;6.00;;;;;30.98;37.31;99372.09;6263261;27;96404;-63
2023/07/08 08:37:48;;;;;;;;;6.00;6.00;;;;;30.73;34.72;99367.63;6264168;27;96223;-64
2023/07/08 08:40:52;;;;;;;;;8.40;8.00;;;;;30.78;38.00;99364.63;6272375;27;96290;-63
2023/07/08 08:43:55;;;;;;;;;5.60;5.60;;;;;31.06;45.99;99367.59;6287865;27;96294;-64
2023/07/08 08:47:08;;;;;;;;;5.00;5.00;;;;;31.21;37.28;99369.72;6273362;27;96374;-64
2023/07/08 08:50:26;;;;;;;;;5.50;5.50;;;;;31.17;35.72;99361.25;6271305;27;96322;-63
2023/07/08 08:53:29;;;;;;;;;5.00;5.00;;;;;31.24;36.40;99358.69;6260672;27;98429;-64
2023/07/08 08:56:40;;;;;;;;;5.20;4.20;;;;;31.13;34.81;99357.50;6263847;27;96373;-64
2023/07/08 08:59:49;;;;;;;;;8.00;8.00;;;;;31.24;37.76;99355.09;6280115;27;96293;-63
2023/07/08 09:02:58;;;;;;;;;7.00;7.00;;;;;31.48;39.68;99366.22;6262585;27;96453;-63
2023/07/08 09:06:11;;;;;;;;;5.00;5.00;;;;;31.78;39.05;99356.50;6239019;27;98401;-64
2023/07/08 09:09:22;;;;;;;;;7.00;7.00;;;;;32.24;41.12;99351.53;6249807;27;96513;-64
2023/07/08 09:12:28;;;;;;;;;6.00;6.00;;;;;32.66;39.30;99346.38;6269451;27;96476;-64
2023/07/08 09:15:33;;;;;;;;;7.00;7.00;;;;;33.02;38.30;99362.09;6269818;27;96491;-64
2023/07/08 09:18:46;;;;;;;;;7.00;7.00;;;;;33.25;29.31;99363.13;6242464;27;97777;-63
2023/07/08 09:21:58;;;;;;;;;5.50;5.50;;;;;33.51;35.01;99354.19;6273658;27;97113;-64
2023/07/08 09:25:10;;;;;;;;;5.00;5.00;;;;;33.76;31.92;99352.81;6253677;27;98432;-63
2023/07/08 09:28:15;;;;;;;;;7.00;6.40;;;;;33.94;31.47;99358.81;6240271;27;99694;-64
2023/07/08 09:31:24;;;;;;;;;5.00;4.80;;;;;33.83;27.93;99339.00;6276052;27;96549;-64
2023/07/08 09:34:38;;;;;;;;;9.00;8.00;;;;;33.50;32.49;99347.78;6251937;27;98434;-64
2023/07/08 09:37:47;;;;;;;;;4.00;4.00;;;;;33.46;30.69;99348.88;6277358;27;97406;-64
2023/07/08 09:40:53;;;;;;;;;7.80;6.80;;;;;33.41;28.14;99361.16;6271634;27;96439;-64
2023/07/08 09:44:21;;;;;;;;;5.00;5.00;;;;;32.90;28.17;99342.63;6276099;27;96743;-63
2023/07/08 09:47:30;;;;;;;;;4.67;4.67;;;;;32.83;27.65;99345.25;6248217;27;96924;-64
2023/07/08 09:50:36;;;;;;;;;6.00;6.00;;;;;33.14;29.97;99345.25;6275843;27;96669;-63
2023/07/08 09:53:41;;;;;;;;;7.00;6.00;;;;;33.27;27.01;99344.03;6247851;27;97449;-64
2023/07/08 09:56:52;;;;;;;;;6.00;5.00;;;;;33.62;31.41;99344.09;6266035;27;96621;-64
2023/07/08 10:00:02;;;;;;;;;5.67;5.00;;;;;33.98;31.93;99328.94;6264617;27;96612;-63
2023/07/08 10:03:17;;;;;;;;;5.60;4.60;;;;;34.14;30.75;99331.66;6265721;27;96331;-64
2023/07/08 10:06:26;;;;;;;;;5.00;4.50;;;;;34.11;25.62;99332.41;6264780;27;96277;-63
2023/07/08 10:09:32;;;;;;;;;7.00;6.00;;;;;34.14;30.18;99335.28;6266362;27;98269;-63
2023/07/08 10:12:37;;;;;;;;;6.00;6.00;;;;;34.38;27.47;99344.59;6290424;27;96450;-63
2023/07/08 10:15:46;;;;;;;;;6.00;6.00;;;;;34.49;28.43;99340.00;6289025;27;96958;-63
2023/07/08 10:18:49;;;;;;;;;6.00;6.00;;;;;34.46;24.60;99335.13;6269381;27;96482;-63
2023/07/08 10:22:02;;;;;;;;;5.25;5.25;;;;;34.57;28.88;99334.19;6259074;27;96517;-63
2023/07/08 10:25:27;;;;;;;;;5.00;5.00;;;;;34.49;26.12;99337.22;6272083;27;96419;-63
2023/07/08 10:28:39;;;;;;;;;3.00;3.00;;;;;33.72;23.68;99328.75;6272824;27;96504;-63
2023/07/08 10:31:52;;;;;;;;;4.25;4.00;;;;;33.87;28.93;99320.28;6267727;27;96756;-63
2023/07/08 10:35:05;;;;;;;;;3.40;3.40;;;;;34.19;24.08;99323.81;6251818;27;96688;-63
2023/07/08 10:38:30;;;;;;;;;5.00;5.00;;;;;34.61;27.37;99323.03;6265318;27;96359;-63
2023/07/08 10:41:48;;;;;;;;;4.50;4.50;;;;;34.54;22.90;99320.13;6275020;27;96498;-63
2023/07/08 10:45:03;;;;;;;;;5.00;5.00;;;;;34.37;22.66;99304.56;6290100;27;96205;-63
2023/07/08 10:48:25;;;;;;;;;5.00;4.00;;;;;34.54;26.45;99314.50;6257134;27;97906;-63
2023/07/08 10:51:39;;;;;;;;;6.25;6.00;;;;;34.89;27.40;99314.41;6230322;27;99119;-64
2023/07/08 10:54:57;;;;;;;;;6.50;6.50;;;;;34.90;24.25;99310.38;6285436;27;96381;-64
2023/07/08 10:58:34;;;;;;;;;5.00;5.00;;;;;34.90;23.79;99307.59;6290289;27;96842;-63
2023/07/08 11:01:46;;;;;;;;;6.00;6.00;;;;;34.83;22.38;99308.28;6263111;27;96869;-63
2023/07/08 11:05:05;;;;;;;;;5.00;4.00;;;;;34.35;22.72;99296.56;6254459;27;96447;-63
2023/07/08 11:08:14;;;;;;;;;5.00;5.00;;;;;34.02;24.29;99296.22;6272880;27;97570;-64
2023/07/08 11:11:31;;;;;;;;;5.00;4.40;;;;;33.96;23.72;99291.31;6289853;27;96795;-63
2023/07/08 11:14:45;;;;;;;;;3.80;3.80;;;;;34.02;23.88;99279.44;6287906;27;96855;-63
2023/07/08 11:17:53;;;;;;;;;4.00;4.00;;;;;33.92;23.98;99282.81;6290808;27;96369;-64
2023/07/08 11:21:03;;;;;;;;;4.00;4.00;;;;;34.14;24.11;99287.72;6286410;27;96378;-63
2023/07/08 11:24:14;;;;;;;;;4.75;4.25;;;;;34.38;24.68;99281.00;6285781;27;97223;-63
2023/07/08 11:27:26;;;;;;;;;5.00;5.00;;;;;34.54;23.59;99258.50;6276116;27;96463;-64
2023/07/08 11:30:34;;;;;;;;;5.75;5.25;;;;;34.71;24.53;99278.47;6280908;27;96229;-63
2023/07/08 11:33:40;;;;;;;;;6.80;6.40;;;;;34.54;23.13;99273.31;6273958;27;96679;-63
2023/07/08 11:36:44;;;;;;;;;6.00;6.00;;;;;34.70;24.22;99274.03;6279140;27;96431;-63
2023/07/08 11:39:54;;;;;;;;;6.00;5.75;;;;;34.70;23.51;99260.03;6286542;27;96540;-63
2023/07/08 11:43:03;;;;;;;;;8.00;8.00;;;;;34.87;24.18;99272.75;6261057;27;98463;-63
2023/07/08 11:46:16;;;;;;;;;6.50;6.25;;;;;34.95;25.06;99265.25;6265732;27;96855;-63
2023/07/08 11:49:19;;;;;;;;;5.75;5.00;;;;;34.90;24.73;99266.38;6243531;27;96507;-64
2023/07/08 11:52:24;;;;;;;;;3.80;3.00;;;;;35.12;26.38;99270.34;6260862;27;96316;-63
2023/07/08 11:55:37;;;;;;;;;6.00;5.00;;;;;34.94;23.62;99270.06;6248545;27;98550;-63
2023/07/08 11:58:53;;;;;;;;;7.00;6.80;;;;;35.18;27.86;99263.28;6274349;27;97044;-63
2023/07/08 12:02:05;;;;;;;;;7.40;7.00;;;;;35.47;26.34;99272.94;6248675;27;97181;-62
2023/07/08 12:05:14;;;;;;;;;6.25;5.25;;;;;35.75;25.02;99258.50;6286541;27;96822;-64
2023/07/08 12:08:19;;;;;;;;;8.00;7.00;;;;;35.41;22.75;99261.22;6281132;27;96243;-64
2023/07/08 12:11:27;;;;;;;;;6.60;6.00;;;;;35.32;23.26;99262.69;6277350;27;96783;-64
2023/07/08 12:14:32;;;;;;;;;5.80;5.80;;;;;35.43;24.37;99252.44;6281011;27;98110;-64
2023/07/08 12:17:38;;;;;;;;;6.00;6.00;;;;;35.62;23.13;99255.13;6286638;27;96263;-63
2023/07/08 12:20:42;;;;;;;;;5.60;5.00;;;;;35.72;24.97;99257.28;6268468;27;96627;-64
2023/07/08 12:23:46;;;;;;;;;6.00;6.00;;;;;35.95;27.40;99257.19;6254630;27;96563;-66
2023/07/08 12:26:49;;;;;;;;;7.00;5.60;;;;;36.13;23.70;99249.81;6257027;27;96773;-65
2023/07/08 12:29:52;;;;;;;;;8.00;8.00;;;;;36.24;22.84;99244.31;6276253;27;96869;-65
2023/07/08 12:32:59;;;;;;;;;6.00;6.00;;;;;36.14;24.55;99239.38;6270183;27;96544;-65
2023/07/08 12:36:05;;;;;;;;;7.00;7.00;;;;;36.19;22.30;99241.84;6280993;27;96582;-65
2023/07/08 12:39:15;;;;;;;;;6.00;5.00;;;;;36.01;24.27;99236.81;6286399;27;98329;-65
2023/07/08 12:42:18;;;;;;;;;6.00;6.00;;;;;36.11;23.81;99242.94;6267122;27;97070;-65
2023/07/08 12:45:25;;;;;;;;;6.00;6.00;;;;;36.23;24.52;99234.28;6269402;27;96451;-65
2023/07/08 12:48:34;;;;;;;;;5.00;5.00;;;;;36.23;24.61;99234.28;6275130;27;97159;-65
2023/07/08 12:51:37;;;;;;;;;5.00;5.00;;;;;36.27;23.55;99230.31;6261597;27;97205;-65
2023/07/08 12:54:40;;;;;;;;;6.00;6.00;;;;;36.36;26.72;99228.00;6271196;27;96653;-65
2023/07/08 12:57:47;;;;;;;;;6.00;5.00;;;;;36.46;25.65;99229.28;6254865;27;99160;-65
2023/07/08 13:00:51;;;;;;;;;4.00;4.00;;;;;36.51;24.06;99222.53;6257319;27;96856;-65
2023/07/08 13:03:59;;;;;;;;;5.00;5.00;;;;;36.61;26.57;99224.66;6275898;27;97416;-65
2023/07/08 13:07:04;;;;;;;;;6.00;6.00;;;;;36.55;23.15;99218.56;6269953;27;96801;-65
2023/07/08 13:10:13;;;;;;;;;6.00;6.00;;;;;36.43;23.86;99216.03;6261388;27;96887;-65
2023/07/08 13:13:21;;;;;;;;;5.80;5.80;;;;;36.17;25.85;99213.34;6250012;27;97164;-65
2023/07/08 13:16:32;;;;;;;;;4.00;4.00;;;;;36.20;24.87;99219.03;6274965;27;96963;-65
2023/07/08 13:19:37;;;;;;;;;6.00;5.00;;;;;36.27;25.12;99221.88;6253081;27;96723;-66
2023/07/08 13:22:43;;;;;;;;;5.00;4.20;;;;;36.39;25.66;99216.00;6248653;27;97100;-65
2023/07/08 13:25:48;;;;;;;;;5.00;5.00;;;;;36.26;22.26;99208.25;6283390;27;97587;-65
2023/07/08 13:29:00;;;;;;;;;4.40;4.40;;;;;36.08;23.61;99212.81;6249754;27;96615;-65
2023/07/08 13:32:06;;;;;;;;;5.00;5.00;;;;;36.15;24.88;99210.94;6280329;27;96314;-65
2023/07/08 13:35:23;;;;;;;;;5.00;5.00;;;;;36.06;26.75;99193.56;6273622;27;96759;-65
2023/07/08 13:38:34;;;;;;;;;5.00;5.00;;;;;36.20;24.64;99198.56;6258312;27;96481;-65
2023/07/08 13:41:37;;;;;;;;;5.00;5.00;;;;;36.16;25.94;99206.13;6236593;27;97388;-65
2023/07/08 13:44:46;;;;;;;;;4.50;4.50;;;;;36.05;26.21;99203.19;6236386;27;97944;-65
2023/07/08 13:48:04;;;;;;;;;4.50;4.00;;;;;36.01;23.68;99194.72;6246253;27;99766;-65
2023/07/08 13:51:11;;;;;;;;;5.00;5.00;;;;;35.99;23.87;99194.28;6255884;27;98175;-67
2023/07/08 13:54:20;;;;;;;;;4.00;4.00;;;;;35.97;24.65;99193.84;6251281;27;96793;-65
2023/07/08 13:57:29;;;;;;;;;3.80;3.00;;;;;35.94;23.34;99194.63;6259088;27;98108;-65
2023/07/08 14:00:33;;;;;;;;;3.00;2.00;;;;;35.88;22.22;99193.34;6249123;27;97736;-65
2023/07/08 14:03:36;;;;;;;;;4.00;3.20;;;;;35.94;22.19;99191.00;6225821;27;96804;-65
2023/07/08 14:06:41;;;;;;;;;5.00;5.00;;;;;35.91;21.64;99191.78;6271648;27;97070;-64
2023/07/08 14:09:46;;;;;;;;;3.00;3.00;;;;;35.97;20.51;99179.03;6277075;27;96897;-65
2023/07/08 14:12:49;;;;;;;;;3.25;3.25;;;;;35.93;20.53;99189.41;6281454;27;96525;-65
2023/07/08 14:15:53;;;;;;;;;2.00;2.00;;;;;35.91;20.85;99189.78;6283860;27;96829;-65
2023/07/08 14:18:57;;;;;;;;;3.00;3.00;;;;;35.82;18.50;99191.28;6247910;27;97467;-65
2023/07/08 14:22:07;;;;;;;;;2.00;2.00;;;;;35.62;17.50;99185.00;6265618;27;97621;-65